createdAt,value
2022-09-04T00:02:23.908Z,9.43
2022-09-04T00:04:58.678Z,8.95
2022-09-04T00:10:11.594Z,9.55
2022-09-04T00:12:48.029Z,9.10
2022-09-04T00:15:21.486Z,9.15
2022-09-04T00:17:56.037Z,9.73
2022-09-04T00:20:35.610Z,9.15
2022-09-04T00:23:12.421Z,8.77
2022-09-04T00:25:50.636Z,8.57
2022-09-04T00:28:26.545Z,8.75
2022-09-04T00:31:02.182Z,8.52
2022-09-04T00:33:38.287Z,8.65
2022-09-04T00:36:08.110Z,7.85
2022-09-04T00:38:43.202Z,8.07
2022-09-04T00:41:22.444Z,7.88
2022-09-04T00:44:21.655Z,6.55
2022-09-04T00:47:10.155Z,7.80
2022-09-04T00:49:57.499Z,7.20
2022-09-04T00:52:45.276Z,6.95
2022-09-04T00:55:30.805Z,8.10
2022-09-04T00:58:12.854Z,7.40
2022-09-04T01:00:41.017Z,7.20
2022-09-04T01:03:48.389Z,6.85
2022-09-04T01:06:36.560Z,7.47
2022-09-04T01:09:24.765Z,6.53
2022-09-04T01:12:02.856Z,7.82
2022-09-04T01:14:39.282Z,6.82
2022-09-04T01:17:15.812Z,6.93
2022-09-04T01:19:55.100Z,6.07
2022-09-04T01:22:36.063Z,5.88
2022-09-04T01:25:26.954Z,6.72
2022-09-04T01:28:04.881Z,5.93
2022-09-04T01:30:38.825Z,7.05
2022-09-04T01:33:16.961Z,6.70
2022-09-04T01:35:57.334Z,6.65
2022-09-04T01:38:35.086Z,7.20
2022-09-04T01:41:10.328Z,7.57
2022-09-04T01:43:41.016Z,5.90
2022-09-04T01:46:28.592Z,6.80
2022-09-04T01:49:04.682Z,7.18
2022-09-04T01:51:41.175Z,7.63
2022-09-04T01:54:21.453Z,5.38
2022-09-04T01:57:05.816Z,5.07
2022-09-04T01:59:44.842Z,4.67
2022-09-04T02:02:23.110Z,4.70
2022-09-04T02:05:03.981Z,4.25
2022-09-04T02:07:39.680Z,5.20
2022-09-04T02:10:14.683Z,5.03
2022-09-04T02:12:51.247Z,4.55
2022-09-04T02:15:33.609Z,3.83
2022-09-04T02:18:11.887Z,5.30
2022-09-04T02:20:45.970Z,5.25
2022-09-04T02:23:30.408Z,5.20
2022-09-04T02:26:04.796Z,5.57
2022-09-04T02:28:43.919Z,5.88
2022-09-04T02:31:21.159Z,5.38
2022-09-04T02:33:53.887Z,5.35
2022-09-04T02:36:30.953Z,5.07
2022-09-04T02:39:09.936Z,5.30
2022-09-04T02:41:43.329Z,5.57
2022-09-04T02:44:30.285Z,5.82
2022-09-04T02:47:12.940Z,5.43
2022-09-04T02:49:59.606Z,5.85
2022-09-04T02:52:53.261Z,5.57
2022-09-04T02:55:45.452Z,5.20
2022-09-04T02:58:23.353Z,6.05
2022-09-04T03:00:58.771Z,5.80
2022-09-04T03:03:33.208Z,5.47
2022-09-04T03:06:05.890Z,5.25
2022-09-04T03:08:40.943Z,5.10
2022-09-04T03:11:17.928Z,5.85
2022-09-04T03:13:53.231Z,5.82
2022-09-04T03:16:28.603Z,5.60
2022-09-04T03:19:09.237Z,6.65
2022-09-04T03:21:42.692Z,5.18
2022-09-04T03:24:17.151Z,5.05
2022-09-04T03:26:50.795Z,4.82
2022-09-04T03:29:28.341Z,4.68
2022-09-04T03:32:16.097Z,4.30
2022-09-04T03:34:54.715Z,4.82
2022-09-04T03:37:42.129Z,4.13
2022-09-04T03:40:24.683Z,5.22
2022-09-04T03:43:11.843Z,4.78
2022-09-04T03:45:51.033Z,4.65
2022-09-04T03:48:34.980Z,4.78
2022-09-04T03:51:17.182Z,4.90
2022-09-04T03:53:50.895Z,4.47
2022-09-04T03:56:46.898Z,4.20
2022-09-04T03:59:27.261Z,4.55
2022-09-04T04:02:06.567Z,4.18
2022-09-04T04:05:04.180Z,5.07
2022-09-04T04:07:43.064Z,4.65
2022-09-04T04:10:25.282Z,4.35
2022-09-04T04:13:13.072Z,4.60
2022-09-04T04:15:54.906Z,4.43
2022-09-04T04:18:36.309Z,4.32
2022-09-04T04:21:14.611Z,4.22
2022-09-04T04:24:29.015Z,4.28
2022-09-04T04:27:14.782Z,3.03
2022-09-04T04:29:59.535Z,3.50
2022-09-04T04:32:52.391Z,5.45
2022-09-04T04:35:29.572Z,4.85
2022-09-04T04:38:09.655Z,6.18
2022-09-04T04:41:06.427Z,6.35
2022-09-04T04:43:47.206Z,6.57
2022-09-04T04:46:23.445Z,6.22
2022-09-04T04:49:22.667Z,6.22
2022-09-04T04:52:32.341Z,5.97
2022-09-04T04:55:12.608Z,6.28
2022-09-04T04:57:53.403Z,7.05
2022-09-04T05:00:29.306Z,6.90
2022-09-04T05:03:07.439Z,6.80
2022-09-04T05:05:56.430Z,5.85
2022-09-04T05:08:35.973Z,6.88
2022-09-04T05:11:10.661Z,6.85
2022-09-04T05:16:19.576Z,6.85
2022-09-04T05:18:56.733Z,7.18
2022-09-04T05:21:34.109Z,7.88
2022-09-04T05:24:06.616Z,7.70
2022-09-04T05:26:40.342Z,7.47
2022-09-04T05:29:14.841Z,8.48
2022-09-04T05:31:52.485Z,8.85
2022-09-04T05:34:27.882Z,8.75
2022-09-04T05:37:07.896Z,10.38
2022-09-04T05:39:45.718Z,8.38
2022-09-04T05:42:39.297Z,10.23
2022-09-04T05:45:22.221Z,13.95
2022-09-04T05:48:02.172Z,12.38
2022-09-04T05:50:51.059Z,11.15
2022-09-04T05:53:34.298Z,9.00
2022-09-04T05:56:32.362Z,8.57
2022-09-04T05:59:24.648Z,8.70
2022-09-04T06:02:09.723Z,8.18
2022-09-04T06:07:30.741Z,7.50
2022-09-04T06:10:04.093Z,7.30
2022-09-04T06:13:01.969Z,6.22
2022-09-04T06:15:53.387Z,6.75
2022-09-04T06:18:40.864Z,5.68
2022-09-04T06:21:25.622Z,5.30
2022-09-04T06:24:15.790Z,5.40
2022-09-04T06:27:03.909Z,5.35
2022-09-04T06:29:53.413Z,5.28
2022-09-04T06:32:59.599Z,4.50
2022-09-04T06:35:47.154Z,5.28
2022-09-04T06:38:33.458Z,5.00
2022-09-04T06:41:26.531Z,4.85
2022-09-04T06:44:00.789Z,3.97
2022-09-04T06:46:39.620Z,7.32
2022-09-04T06:49:13.324Z,3.25
2022-09-04T06:51:54.787Z,4.53
2022-09-04T06:54:41.570Z,4.40
2022-09-04T06:57:39.701Z,4.25
2022-09-04T07:00:10.447Z,4.38
2022-09-04T07:03:14.752Z,3.67
2022-09-04T07:05:54.039Z,3.05
2022-09-04T07:08:35.331Z,3.13
2022-09-04T07:11:20.504Z,2.65
2022-09-04T07:14:29.969Z,3.03
2022-09-04T07:17:08.757Z,2.70
2022-09-04T07:19:52.400Z,2.47
2022-09-04T07:22:48.847Z,2.53
2022-09-04T07:25:23.436Z,2.60
2022-09-04T07:30:45.561Z,2.42
2022-09-04T07:33:20.563Z,2.92
2022-09-04T07:35:58.385Z,2.90
2022-09-04T07:38:35.039Z,2.35
2022-09-04T07:41:12.963Z,2.30
2022-09-04T07:43:54.837Z,2.40
2022-09-04T07:46:33.554Z,3.08
2022-09-04T07:49:10.110Z,2.70
2022-09-04T07:51:44.270Z,2.20
2022-09-04T07:54:36.600Z,2.50
2022-09-04T07:57:27.064Z,2.35
2022-09-04T08:00:09.871Z,2.72
2022-09-04T08:03:02.006Z,2.22
2022-09-04T08:05:34.660Z,2.00
2022-09-04T08:08:34.110Z,3.38
2022-09-04T08:11:17.402Z,2.60
2022-09-04T08:14:28.123Z,2.60
2022-09-04T08:17:24.634Z,2.28
2022-09-04T08:20:04.163Z,2.05
2022-09-04T08:22:44.458Z,1.90
2022-09-04T08:25:20.567Z,2.80
2022-09-04T08:28:02.098Z,2.10
2022-09-04T08:30:36.983Z,2.03
2022-09-04T08:33:24.969Z,1.92
2022-09-04T08:36:01.496Z,2.60
2022-09-04T08:39:02.428Z,2.08
2022-09-04T08:42:05.800Z,1.92
2022-09-04T08:45:09.183Z,2.15
2022-09-04T08:48:11.228Z,2.15
2022-09-04T08:51:10.247Z,2.63
2022-09-04T08:54:03.712Z,1.80
2022-09-04T08:56:37.906Z,1.70
2022-09-04T08:59:29.325Z,1.85
2022-09-04T09:02:34.910Z,2.20
2022-09-04T09:05:31.976Z,2.25
2022-09-04T09:08:37.274Z,2.30
2022-09-04T09:11:55.904Z,2.00
2022-09-04T09:14:55.585Z,4.03
2022-09-04T09:17:39.127Z,1.98
2022-09-04T09:20:29.011Z,2.10
2022-09-04T09:23:22.353Z,1.60
2022-09-04T09:25:56.667Z,2.00
2022-09-04T09:29:23.566Z,1.80
2022-09-04T09:32:26.618Z,2.03
2022-09-04T09:35:41.897Z,2.10
2022-09-04T09:38:47.454Z,1.77
2022-09-04T09:41:45.344Z,1.70
2022-09-04T09:44:51.349Z,1.80
2022-09-04T09:47:54.855Z,1.45
2022-09-04T09:50:49.984Z,1.50
2022-09-04T09:53:53.238Z,2.08
2022-09-04T09:57:02.104Z,1.83
2022-09-04T10:00:02.458Z,1.90
2022-09-04T10:03:17.735Z,2.30
2022-09-04T10:06:35.252Z,1.77
2022-09-04T10:09:32.836Z,1.58
2022-09-04T10:12:45.038Z,1.65
2022-09-04T10:15:52.466Z,1.27
2022-09-04T10:19:11.469Z,1.40
2022-09-04T10:22:15.182Z,1.50
2022-09-04T10:25:09.739Z,1.75
2022-09-04T10:28:15.736Z,3.38
2022-09-04T10:31:14.213Z,1.65
2022-09-04T10:33:59.030Z,1.88
2022-09-04T10:36:37.217Z,1.35
2022-09-04T10:39:41.098Z,1.80
2022-09-04T10:42:27.673Z,2.25
2022-09-04T10:45:17.275Z,2.05
2022-09-04T10:48:05.011Z,1.52
2022-09-04T10:50:57.559Z,1.42
2022-09-04T10:53:54.736Z,1.40
2022-09-04T10:56:30.074Z,1.70
2022-09-04T10:59:30.488Z,1.92
2022-09-04T11:02:33.239Z,1.40
2022-09-04T11:05:23.322Z,1.52
2022-09-04T11:08:16.382Z,1.60
2022-09-04T11:11:08.459Z,2.08
2022-09-04T11:14:09.028Z,1.80
2022-09-04T11:17:09.362Z,1.95
2022-09-04T11:20:27.926Z,1.52
2022-09-04T11:23:39.067Z,1.63
2022-09-04T11:26:55.004Z,1.30
2022-09-04T11:32:22.082Z,3.08
2022-09-04T11:35:14.249Z,1.73
2022-09-04T11:38:00.692Z,1.70
2022-09-04T11:40:57.880Z,1.45
2022-09-04T11:43:54.295Z,1.52
2022-09-04T11:46:43.169Z,1.80
2022-09-04T11:49:38.955Z,1.63
2022-09-04T11:52:28.533Z,1.90
2022-09-04T11:55:25.104Z,1.65
2022-09-04T11:58:40.495Z,1.80
2022-09-04T12:01:29.954Z,1.85
2022-09-04T12:04:30.452Z,1.55
2022-09-04T12:07:16.200Z,2.00
2022-09-04T12:10:10.299Z,1.85
2022-09-04T12:13:25.834Z,1.67
2022-09-04T12:16:28.963Z,1.30
2022-09-04T12:19:21.289Z,1.35
2022-09-04T12:22:23.358Z,2.17
2022-09-04T12:25:18.207Z,2.08
2022-09-04T12:28:28.808Z,2.50
2022-09-04T12:31:17.160Z,2.85
2022-09-04T12:34:09.466Z,1.65
2022-09-04T12:36:59.757Z,2.10
2022-09-04T12:39:53.780Z,2.22
2022-09-04T12:42:29.794Z,1.88
2022-09-04T12:45:11.372Z,1.95
2022-09-04T12:47:57.271Z,3.30
2022-09-04T12:50:33.624Z,2.60
2022-09-04T12:53:25.891Z,2.83
2022-09-04T12:56:06.675Z,3.47
2022-09-04T12:58:53.660Z,5.25
2022-09-04T13:01:36.686Z,7.75
2022-09-04T13:04:17.626Z,15.32
2022-09-04T13:06:59.439Z,41.80
2022-09-04T13:09:41.430Z,32.50
2022-09-04T13:12:34.661Z,39.53
2022-09-04T13:15:19.339Z,38.35
2022-09-04T13:17:58.334Z,44.72
2022-09-04T13:20:35.924Z,55.05
2022-09-04T13:23:21.144Z,47.15
2022-09-04T13:26:15.470Z,42.03
2022-09-04T13:28:58.073Z,56.90
2022-09-04T13:31:47.933Z,41.00
2022-09-04T13:34:28.322Z,37.60
2022-09-04T13:37:06.261Z,35.50
2022-09-04T13:40:10.601Z,52.92
2022-09-04T13:43:20.542Z,37.85
2022-09-04T13:45:53.827Z,31.58
2022-09-04T13:48:34.679Z,34.67
2022-09-04T13:51:13.756Z,32.47
2022-09-04T13:53:57.430Z,36.55
2022-09-04T13:56:31.597Z,40.10
2022-09-04T13:59:08.655Z,36.22
2022-09-04T14:01:46.277Z,38.50
2022-09-04T14:04:19.446Z,43.63
2022-09-04T14:06:48.716Z,28.92
2022-09-04T14:09:17.895Z,34.72
2022-09-04T14:12:24.884Z,25.63
2022-09-04T14:15:34.962Z,27.95
2022-09-04T14:18:26.696Z,21.05
2022-09-04T14:21:01.120Z,22.75
2022-09-04T14:23:41.247Z,19.73
2022-09-04T14:26:19.838Z,16.77
2022-09-04T14:28:54.545Z,17.98
2022-09-04T14:31:32.723Z,29.25
2022-09-04T14:34:13.784Z,49.08
2022-09-04T14:36:54.521Z,58.92
2022-09-04T14:39:27.554Z,75.72
2022-09-04T14:42:25.713Z,72.25
2022-09-04T14:45:09.626Z,68.95
2022-09-04T14:47:43.390Z,72.43
2022-09-04T14:50:15.265Z,68.65
2022-09-04T14:52:47.497Z,56.42
2022-09-04T14:55:17.928Z,51.03
2022-09-04T14:57:51.564Z,59.92
2022-09-04T15:00:22.244Z,52.58
2022-09-04T15:02:58.192Z,55.05
2022-09-04T15:05:31.978Z,65.07
2022-09-04T15:08:01.837Z,53.88
2022-09-04T15:10:37.223Z,58.28
2022-09-04T15:13:35.455Z,61.22
2022-09-04T15:16:18.404Z,79.40
2022-09-04T15:19:07.964Z,72.65
2022-09-04T15:21:46.223Z,83.97
2022-09-04T15:24:26.554Z,87.15
2022-09-04T15:27:01.870Z,77.78
2022-09-04T15:29:38.256Z,81.40
2022-09-04T15:32:09.441Z,82.18
2022-09-04T15:34:42.683Z,72.22
2022-09-04T15:37:17.721Z,70.43
2022-09-04T15:39:55.134Z,57.60
2022-09-04T15:42:38.400Z,48.00
2022-09-04T15:45:15.470Z,41.70
2022-09-04T15:48:11.257Z,30.38
2022-09-04T15:50:57.590Z,24.70
2022-09-04T15:53:31.327Z,23.88
2022-09-04T15:56:25.687Z,18.37
2022-09-04T15:59:01.773Z,13.63
2022-09-04T16:01:40.230Z,9.88
2022-09-04T16:04:17.350Z,11.38
2022-09-04T16:06:50.523Z,7.55
2022-09-04T16:09:27.631Z,6.20
2022-09-04T16:12:03.567Z,6.78
2022-09-04T16:14:42.467Z,5.50
2022-09-04T16:17:19.438Z,5.80
2022-09-04T16:19:53.826Z,6.65
2022-09-04T16:22:36.433Z,6.60
2022-09-04T16:25:11.939Z,5.63
2022-09-04T16:27:49.437Z,4.82
2022-09-04T16:30:41.825Z,4.65
2022-09-04T16:33:27.715Z,3.90
2022-09-04T16:36:03.531Z,3.78
2022-09-04T16:38:40.645Z,3.65
2022-09-04T16:41:17.061Z,3.80
2022-09-04T16:44:12.243Z,3.72
2022-09-04T16:46:51.560Z,4.18
2022-09-04T16:49:26.598Z,2.83
2022-09-04T16:52:05.674Z,3.30
2022-09-04T16:54:39.104Z,3.13
2022-09-04T16:57:13.758Z,3.22
2022-09-04T16:59:46.364Z,3.25
2022-09-04T17:02:22.710Z,3.80
2022-09-04T17:05:03.628Z,4.00
2022-09-04T17:07:39.402Z,5.53
2022-09-04T17:10:15.135Z,6.88
2022-09-04T17:12:52.669Z,4.65
2022-09-04T17:15:30.569Z,5.18
2022-09-04T17:18:01.273Z,4.10
2022-09-04T17:21:18.435Z,3.75
2022-09-04T17:29:10.416Z,3.33
2022-09-04T17:29:14.769Z,3.35
2022-09-04T17:29:36.358Z,3.17
2022-09-04T17:32:24.214Z,3.17
2022-09-04T17:40:38.421Z,3.13
2022-09-04T17:40:57.150Z,2.85
2022-09-04T17:41:39.509Z,3.03
2022-09-04T17:44:10.226Z,3.28
2022-09-04T17:46:45.486Z,3.50
2022-09-04T17:49:20.137Z,3.47
2022-09-04T17:54:29.076Z,3.65
2022-09-04T17:57:01.362Z,3.88
2022-09-04T17:59:37.607Z,3.20
2022-09-04T18:02:17.297Z,3.88
2022-09-04T18:04:50.836Z,3.50
2022-09-04T18:07:57.786Z,3.35
2022-09-04T18:10:23.809Z,3.38
2022-09-04T18:13:04.958Z,3.78
2022-09-04T18:15:39.448Z,3.72
2022-09-04T18:18:14.103Z,4.15
2022-09-04T18:23:33.258Z,4.18
2022-09-04T18:26:33.965Z,4.68
2022-09-04T18:30:57.270Z,4.20
2022-09-04T18:37:13.273Z,4.90
2022-09-04T18:37:23.987Z,4.63
2022-09-04T18:38:20.684Z,4.75
2022-09-04T18:42:57.582Z,4.63
2022-09-04T18:50:25.474Z,4.70
2022-09-04T18:50:42.919Z,3.97
2022-09-04T18:50:44.667Z,4.97
2022-09-04T18:52:20.539Z,4.03
2022-09-04T18:54:54.091Z,4.05
2022-09-04T18:57:29.025Z,3.83
2022-09-04T19:00:07.963Z,3.60
2022-09-04T19:02:51.410Z,3.60
2022-09-04T19:05:22.046Z,4.57
2022-09-04T19:07:57.921Z,2.83
2022-09-04T19:10:29.423Z,3.70
2022-09-04T19:13:03.902Z,3.50
2022-09-04T19:15:45.652Z,3.72
2022-09-04T19:18:25.619Z,3.28
2022-09-04T19:21:07.839Z,4.30
2022-09-04T19:23:44.618Z,3.92
2022-09-04T19:26:24.586Z,3.13
2022-09-04T19:28:57.339Z,3.17
2022-09-04T19:31:33.779Z,3.10
2022-09-04T19:34:13.107Z,3.55
2022-09-04T19:36:48.637Z,3.53
2022-09-04T19:46:09.184Z,3.47
2022-09-04T19:46:18.774Z,4.25
2022-09-04T19:46:19.715Z,3.63
2022-09-04T19:48:22.680Z,4.20
2022-09-04T19:53:30.285Z,3.78
2022-09-04T19:53:52.878Z,3.85
2022-09-04T19:56:29.885Z,4.03
2022-09-04T19:59:05.906Z,3.63
2022-09-04T20:01:43.608Z,3.60
2022-09-04T20:04:20.703Z,3.40
2022-09-04T20:06:52.273Z,3.95
2022-09-04T20:09:28.646Z,3.92
2022-09-04T20:12:04.298Z,3.97
2022-09-04T20:14:41.245Z,3.90
2022-09-04T20:17:23.221Z,3.38
2022-09-04T20:19:56.660Z,3.33
2022-09-04T20:22:33.515Z,3.22
2022-09-04T20:25:27.988Z,3.58
2022-09-04T20:28:08.870Z,3.25
2022-09-04T20:30:38.409Z,3.47
2022-09-04T20:33:11.447Z,3.58
2022-09-04T20:35:44.273Z,3.38
2022-09-04T20:38:23.262Z,3.45
2022-09-04T20:40:55.430Z,3.55
2022-09-04T20:43:32.989Z,3.70
2022-09-04T20:52:29.783Z,3.50
2022-09-04T20:52:50.731Z,4.00
2022-09-04T20:53:05.732Z,3.30
2022-09-04T20:55:09.469Z,3.60
2022-09-04T21:03:08.142Z,3.70
2022-09-04T21:03:19.489Z,3.78
2022-09-04T21:03:59.180Z,3.00
2022-09-04T21:06:39.505Z,4.13
2022-09-04T21:09:22.480Z,3.50
2022-09-04T21:11:55.549Z,3.42
2022-09-04T21:14:44.565Z,3.58
2022-09-04T21:17:35.246Z,3.53
2022-09-04T21:20:59.530Z,3.00
2022-09-04T21:24:03.168Z,3.13
2022-09-04T21:26:48.191Z,3.40
2022-09-04T21:29:53.291Z,3.70
2022-09-04T21:32:31.924Z,3.65
2022-09-04T21:35:08.581Z,3.88
2022-09-04T21:37:46.979Z,4.20
2022-09-04T21:40:51.466Z,4.07
2022-09-04T21:43:53.701Z,4.07
2022-09-04T21:46:53.452Z,3.95
2022-09-04T21:49:52.190Z,4.00
2022-09-04T21:52:45.992Z,4.55
2022-09-04T21:59:04.622Z,4.80
2022-09-04T22:02:43.460Z,5.20
2022-09-04T22:02:43.463Z,4.55
2022-09-04T22:04:55.480Z,4.60
2022-09-04T22:12:10.408Z,4.82
2022-09-04T22:13:34.731Z,4.35
2022-09-04T22:13:50.209Z,4.40
2022-09-04T22:16:33.802Z,4.38
2022-09-04T22:19:17.209Z,4.15
2022-09-04T22:22:18.762Z,4.50
2022-09-04T22:25:19.561Z,4.82
2022-09-04T22:28:21.844Z,3.97
2022-09-04T22:31:29.475Z,4.30
2022-09-04T22:34:31.502Z,4.55
2022-09-04T22:37:27.776Z,4.25
2022-09-04T22:40:18.532Z,4.35
2022-09-04T22:42:57.015Z,4.35
2022-09-04T22:46:18.586Z,4.20
2022-09-04T22:49:18.754Z,4.18
2022-09-04T22:52:14.982Z,4.95
2022-09-04T22:55:12.895Z,4.63
2022-09-04T22:58:05.882Z,5.75
2022-09-04T23:00:49.972Z,4.80
2022-09-04T23:03:37.252Z,4.47
2022-09-04T23:08:55.465Z,4.72
2022-09-04T23:13:51.398Z,4.88
2022-09-04T23:14:05.184Z,5.18
2022-09-04T23:16:49.411Z,4.90
2022-09-04T23:25:58.161Z,4.85
2022-09-04T23:26:45.150Z,5.20
2022-09-04T23:26:45.850Z,4.40
2022-09-04T23:28:58.037Z,3.85
2022-09-04T23:31:41.684Z,3.47
2022-09-04T23:34:32.714Z,3.30
2022-09-04T23:37:31.212Z,3.40
2022-09-04T23:40:11.395Z,3.22
2022-09-04T23:43:07.683Z,3.17
2022-09-04T23:46:13.706Z,3.72
2022-09-04T23:51:31.420Z,3.67
2022-09-04T23:54:26.304Z,4.00
2022-09-04T23:57:08.081Z,3.55
2022-09-04T23:59:58.174Z,3.75
